Time;durP1;ratioP1;P1;durP2;ratioP2;P2;SDS_P1;SDS_P2;PMS_P1;PMS_P2;Temp;Humidity;BMP_temperature;BMP_pressure;BME280_temperature;BME280_humidity;BME280_pressure;Samples;Min_cycle;Max_cycle;Signal;HPM_P1;HPM_P2
2021/06/10 00:02:22;;;;;;;12.45;5.07;;;18.50;99.90;;;;;;4378233;32;20073;-65
2021/06/10 00:04:48;;;;;;;6.60;4.97;;;18.40;99.90;;;;;;4390778;32;20067;-66
2021/06/10 00:07:16;;;;;;;10.70;5.10;;;18.40;99.90;;;;;;4375209;32;20154;-65
2021/06/10 00:09:43;;;;;;;9.15;5.53;;;18.20;99.90;;;;;;4387675;32;20081;-66
2021/06/10 00:12:10;;;;;;;8.40;5.53;;;18.20;99.90;;;;;;4383252;32;20089;-64
2021/06/10 00:14:37;;;;;;;6.37;5.05;;;17.90;99.90;;;;;;4406078;32;20058;-71
2021/06/10 00:17:03;;;;;;;8.68;4.57;;;17.80;99.90;;;;;;4393534;32;20077;-66
2021/06/10 00:19:30;;;;;;;7.00;4.85;;;17.80;99.90;;;;;;4387411;32;20455;-66
2021/06/10 00:21:56;;;;;;;6.65;4.90;;;17.80;99.90;;;;;;4400280;32;20499;-65
2021/06/10 00:24:22;;;;;;;5.85;4.65;;;17.90;99.90;;;;;;4399825;32;20174;-66
2021/06/10 00:26:48;;;;;;;6.68;5.05;;;17.90;99.90;;;;;;4412669;32;20492;-66
2021/06/10 00:29:14;;;;;;;7.07;4.75;;;17.50;99.90;;;;;;4388222;32;20531;-66
2021/06/10 00:31:41;;;;;;;5.97;4.47;;;17.50;99.90;;;;;;4397458;32;20143;-66
2021/06/10 00:34:07;;;;;;;5.85;4.60;;;17.40;99.90;;;;;;4407869;32;20092;-66
2021/06/10 00:36:33;;;;;;;6.53;4.57;;;17.30;99.90;;;;;;4391897;32;20236;-66
2021/06/10 00:38:59;;;;;;;9.95;4.55;;;17.40;99.90;;;;;;4400773;32;20145;-65
2021/06/10 00:41:32;;;;;;;7.60;4.72;;;17.40;99.90;;;;;;4411726;32;20077;-66
2021/06/10 00:43:59;;;;;;;9.00;5.18;;;17.20;99.90;;;;;;4390538;32;20063;-65
2021/06/10 00:46:27;;;;;;;8.68;5.50;;;17.10;99.90;;;;;;4389089;32;20150;-66
2021/06/10 00:48:53;;;;;;;11.00;5.30;;;17.00;99.90;;;;;;4379905;32;20153;-66
2021/06/10 00:51:20;;;;;;;6.12;4.87;;;17.10;99.90;;;;;;4401850;32;20070;-67
2021/06/10 00:53:46;;;;;;;8.05;5.43;;;17.20;99.90;;;;;;4377404;32;20090;-66
2021/06/10 00:56:12;;;;;;;6.78;4.85;;;17.20;99.90;;;;;;4376945;32;20563;-64
2021/06/10 00:58:38;;;;;;;5.10;4.35;;;17.00;99.90;;;;;;4386609;32;20089;-66
2021/06/10 01:01:05;;;;;;;5.10;4.20;;;16.90;99.90;;;;;;4381065;32;20074;-65
2021/06/10 01:03:31;;;;;;;9.73;4.90;;;17.00;99.90;;;;;;4387971;32;20523;-66
2021/06/10 01:06:03;;;;;;;7.07;4.78;;;16.80;99.90;;;;;;4377060;32;20170;-65
2021/06/10 01:08:55;;;;;;;7.07;4.70;;;16.90;99.90;;;;;;4364308;32;20085;-66
2021/06/10 01:11:46;;;;;;;6.25;4.72;;;16.90;99.90;;;;;;4400315;32;20137;-66
2021/06/10 01:14:43;;;;;;;7.35;4.82;;;17.00;99.90;;;;;;4376637;32;20066;-65
2021/06/10 01:17:10;;;;;;;6.72;4.65;;;17.00;99.90;;;;;;4389334;32;20485;-65
2021/06/10 01:20:05;;;;;;;7.40;5.00;;;16.90;99.90;;;;;;4369153;32;20089;-66
2021/06/10 01:22:57;;;;;;;7.12;4.60;;;16.90;99.90;;;;;;4381450;32;20086;-66
2021/06/10 01:25:52;;;;;;;8.35;5.18;;;16.90;99.90;;;;;;4374891;32;20568;-65
2021/06/10 01:28:33;;;;;;;7.45;4.87;;;16.90;99.90;;;;;;4384990;32;20081;-66
2021/06/10 01:31:05;;;;;;;5.65;4.70;;;17.00;99.90;;;;;;4379378;32;20077;-66
2021/06/10 01:33:53;;;;;;;6.43;4.68;;;16.90;99.90;;;;;;4391802;32;20074;-65
2021/06/10 01:36:37;;;;;;;7.28;4.80;;;17.00;99.90;;;;;;4374499;32;20058;-66
2021/06/10 01:39:09;;;;;;;6.93;5.25;;;17.10;99.90;;;;;;4378133;32;20441;-66
2021/06/10 01:41:35;;;;;;;7.45;4.85;;;17.30;99.90;;;;;;4389001;32;20127;-66
2021/06/10 01:44:02;;;;;;;7.32;4.90;;;17.40;99.90;;;;;;4380835;32;20426;-66
2021/06/10 01:46:29;;;;;;;7.12;4.78;;;17.30;99.90;;;;;;4376791;32;20080;-66
2021/06/10 01:48:56;;;;;;;6.37;4.53;;;17.40;99.90;;;;;;4376132;32;20089;-66
2021/06/10 01:51:25;;;;;;;7.78;4.45;;;17.50;99.90;;;;;;4376577;32;20108;-66
2021/06/10 01:53:52;;;;;;;7.53;4.40;;;17.60;99.90;;;;;;4363537;32;20078;-66
2021/06/10 01:56:18;;;;;;;7.60;5.12;;;17.70;99.90;;;;;;4397634;32;20537;-66
2021/06/10 01:58:45;;;;;;;8.05;4.70;;;17.80;99.90;;;;;;4378881;32;20066;-66
2021/06/10 02:01:11;;;;;;;7.50;4.90;;;17.80;99.90;;;;;;4376005;32;20137;-65
2021/06/10 02:03:38;;;;;;;8.77;5.75;;;18.00;99.90;;;;;;4367127;32;20591;-66
2021/06/10 02:06:05;;;;;;;7.87;6.15;;;18.10;99.90;;;;;;4367643;32;20181;-65
2021/06/10 02:08:31;;;;;;;12.68;6.10;;;18.10;99.90;;;;;;4362201;32;20062;-64
2021/06/10 02:10:58;;;;;;;12.68;7.70;;;18.20;99.90;;;;;;4390156;32;20066;-66
2021/06/10 02:13:29;;;;;;;17.52;9.57;;;18.30;99.90;;;;;;4367970;32;20523;-65
2021/06/10 02:15:59;;;;;;;17.08;9.70;;;18.40;99.90;;;;;;4371849;32;20135;-66
2021/06/10 02:18:25;;;;;;;16.48;9.48;;;18.50;99.90;;;;;;4376134;32;20066;-66
2021/06/10 02:20:51;;;;;;;11.30;7.07;;;18.50;99.90;;;;;;4388851;32;20080;-66
2021/06/10 02:23:17;;;;;;;13.15;8.48;;;18.50;99.90;;;;;;4387999;32;20805;-66
2021/06/10 02:25:44;;;;;;;14.40;9.30;;;18.60;99.90;;;;;;4388705;32;20061;-66
2021/06/10 02:28:10;;;;;;;11.75;8.38;;;18.70;99.90;;;;;;4387742;32;20074;-66
2021/06/10 02:30:36;;;;;;;11.18;7.43;;;18.70;99.90;;;;;;4388509;32;20586;-64
2021/06/10 02:33:02;;;;;;;13.52;7.47;;;18.80;99.90;;;;;;4375669;32;20116;-66
2021/06/10 02:35:28;;;;;;;9.50;6.78;;;18.90;99.90;;;;;;4378727;32;20173;-66
2021/06/10 02:37:58;;;;;;;8.32;6.22;;;18.80;99.90;;;;;;4375448;32;20066;-64
2021/06/10 02:40:44;;;;;;;9.60;6.70;;;18.90;99.90;;;;;;4375824;32;20580;-65
2021/06/10 02:43:10;;;;;;;10.37;6.63;;;18.90;99.90;;;;;;4390645;32;20097;-66
2021/06/10 02:45:38;;;;;;;9.82;6.62;;;18.90;99.90;;;;;;4375159;32;20505;-66
2021/06/10 02:48:05;;;;;;;8.48;6.22;;;19.00;99.90;;;;;;4385776;32;20097;-65
2021/06/10 02:50:31;;;;;;;8.50;6.53;;;19.10;99.90;;;;;;4378106;32;20081;-65
2021/06/10 02:52:58;;;;;;;9.25;6.50;;;19.10;99.90;;;;;;4377923;32;20496;-66
2021/06/10 02:55:25;;;;;;;7.93;5.75;;;19.20;99.90;;;;;;4375358;32;20068;-66
2021/06/10 02:57:55;;;;;;;10.40;5.95;;;19.30;99.90;;;;;;4377507;32;20069;-66
2021/06/10 03:00:25;;;;;;;8.98;6.00;;;19.30;99.90;;;;;;4362960;32;20517;-66
2021/06/10 03:02:51;;;;;;;9.35;6.18;;;19.40;99.90;;;;;;4364967;32;20078;-66
2021/06/10 03:05:18;;;;;;;9.82;7.10;;;19.40;99.90;;;;;;4387621;32;20078;-66
2021/06/10 03:07:45;;;;;;;9.55;6.85;;;19.60;99.90;;;;;;4381371;32;20070;-66
2021/06/10 03:10:12;;;;;;;7.32;6.03;;;19.70;99.90;;;;;;4378293;32;20065;-66
2021/06/10 03:12:39;;;;;;;10.20;7.95;;;19.80;99.90;;;;;;4353934;32;20512;-66
2021/06/10 03:15:07;;;;;;;9.07;7.28;;;19.90;99.90;;;;;;4376898;32;20168;-66
2021/06/10 03:17:34;;;;;;;8.70;6.75;;;20.00;99.90;;;;;;4398889;32;20121;-66
2021/06/10 03:20:00;;;;;;;8.77;7.78;;;20.00;99.90;;;;;;4375505;32;20097;-66
2021/06/10 03:22:27;;;;;;;11.27;7.53;;;20.10;99.90;;;;;;4391773;32;20094;-64
2021/06/10 03:24:53;;;;;;;12.50;8.73;;;20.20;99.90;;;;;;4385228;32;20065;-65
2021/06/10 03:27:19;;;;;;;11.32;9.95;;;20.30;99.90;;;;;;4393639;32;20070;-66
2021/06/10 03:29:46;;;;;;;10.77;9.15;;;20.30;99.90;;;;;;4376595;32;20067;-65
2021/06/10 03:32:13;;;;;;;12.90;9.75;;;20.40;99.90;;;;;;4371621;32;20193;-66
2021/06/10 03:34:39;;;;;;;14.98;11.20;;;20.60;99.90;;;;;;4402741;32;20093;-65
2021/06/10 03:37:05;;;;;;;35.55;18.48;;;20.60;99.90;;;;;;4381921;32;20084;-65
2021/06/10 03:39:31;;;;;;;25.60;14.30;;;20.70;99.90;;;;;;4398582;32;20161;-66
2021/06/10 03:41:59;;;;;;;23.50;13.62;;;20.80;99.90;;;;;;4382343;32;20146;-66
2021/06/10 03:44:27;;;;;;;19.17;12.48;;;20.90;99.90;;;;;;4376904;32;20100;-65
2021/06/10 03:46:55;;;;;;;15.45;10.73;;;21.10;99.90;;;;;;4377275;32;20144;-65
2021/06/10 03:49:22;;;;;;;17.48;9.13;;;21.00;99.90;;;;;;4391532;32;20151;-65
2021/06/10 03:51:52;;;;;;;7.82;6.40;;;21.20;99.90;;;;;;4389406;32;20070;-66
2021/06/10 03:54:21;;;;;;;7.82;5.95;;;20.80;99.90;;;;;;4378893;32;20220;-67
2021/06/10 03:56:47;;;;;;;7.35;5.70;;;20.20;99.90;;;;;;4366045;32;20074;-66
2021/06/10 03:59:14;;;;;;;6.62;4.90;;;20.10;99.90;;;;;;4375632;32;20171;-65
2021/06/10 04:01:41;;;;;;;6.12;5.40;;;19.80;99.90;;;;;;4393101;32;20058;-65
2021/06/10 04:04:07;;;;;;;6.85;4.75;;;19.70;99.90;;;;;;4382022;32;20509;-66
2021/06/10 04:06:35;;;;;;;6.50;5.28;;;19.60;99.90;;;;;;4383264;32;20076;-67
2021/06/10 04:09:03;;;;;;;6.82;5.07;;;19.40;99.90;;;;;;4375214;32;20162;-66
2021/06/10 04:11:29;;;;;;;6.40;5.12;;;19.70;99.90;;;;;;4391295;32;20086;-66
2021/06/10 04:13:55;;;;;;;5.97;5.20;;;19.70;99.90;;;;;;4390186;32;20070;-66
2021/06/10 04:16:25;;;;;;;7.57;6.00;;;19.70;99.90;;;;;;4384392;32;20069;-66
2021/06/10 04:18:52;;;;;;;7.35;5.40;;;20.00;99.90;;;;;;4377070;32;20488;-66
2021/06/10 04:21:18;;;;;;;9.00;5.10;;;19.90;99.90;;;;;;4401369;32;20478;-66
2021/06/10 04:23:45;;;;;;;7.82;5.37;;;19.80;99.90;;;;;;4390187;32;20088;-65
2021/06/10 04:26:11;;;;;;;11.70;5.95;;;19.80;99.90;;;;;;4389439;32;20097;-66
2021/06/10 04:28:37;;;;;;;7.30;5.07;;;20.30;99.90;;;;;;4368401;32;20066;-67
2021/06/10 04:31:03;;;;;;;4.70;4.18;;;20.40;99.90;;;;;;4379961;32;20070;-67
2021/06/10 04:33:30;;;;;;;6.50;4.30;;;20.50;99.90;;;;;;4400364;32;20088;-66
2021/06/10 04:35:56;;;;;;;5.37;4.10;;;21.00;99.90;;;;;;4376073;32;20069;-66
2021/06/10 04:38:22;;;;;;;5.95;4.25;;;22.00;99.90;;;;;;4364537;32;20587;-67
2021/06/10 04:40:48;;;;;;;5.05;4.00;;;22.40;99.90;;;;;;4376999;32;20512;-66
2021/06/10 04:43:14;;;;;;;6.55;4.82;;;23.30;99.90;;;;;;4374351;32;20074;-65
2021/06/10 04:45:41;;;;;;;8.95;4.57;;;22.80;99.90;;;;;;4362114;32;20158;-67
2021/06/10 04:48:07;;;;;;;6.32;4.28;;;21.90;99.90;;;;;;4365208;32;20069;-66
2021/06/10 04:50:34;;;;;;;8.48;4.50;;;21.10;99.90;;;;;;4385719;32;20070;-66
2021/06/10 04:53:00;;;;;;;7.37;4.72;;;21.30;99.90;;;;;;4355046;32;20424;-66
2021/06/10 04:55:26;;;;;;;5.45;4.43;;;22.40;99.90;;;;;;4388115;32;20081;-65
2021/06/10 04:57:53;;;;;;;5.30;4.07;;;22.10;99.90;;;;;;4378191;32;20588;-66
2021/06/10 05:00:19;;;;;;;5.70;4.30;;;22.30;99.90;;;;;;4377275;32;20422;-66
2021/06/10 05:02:45;;;;;;;6.22;4.40;;;22.70;99.90;;;;;;4364930;32;20078;-66
2021/06/10 05:05:12;;;;;;;4.68;3.87;;;21.60;99.90;;;;;;4389826;32;20070;-66
2021/06/10 05:07:38;;;;;;;4.75;3.40;;;21.40;99.90;;;;;;4382139;32;20158;-66
2021/06/10 05:10:05;;;;;;;4.80;4.07;;;21.90;99.90;;;;;;4364652;32;20082;-66
2021/06/10 05:12:31;;;;;;;5.03;3.90;;;22.00;99.90;;;;;;4384264;32;20062;-66
2021/06/10 05:14:57;;;;;;;4.50;3.72;;;22.10;99.90;;;;;;4378092;32;20074;-65
2021/06/10 05:17:24;;;;;;;5.65;3.70;;;22.60;99.90;;;;;;4388277;32;20085;-66
2021/06/10 05:19:51;;;;;;;4.20;3.80;;;23.00;99.90;;;;;;4395438;32;20078;-65
2021/06/10 05:22:17;;;;;;;5.00;4.20;;;22.40;99.90;;;;;;4376717;32;20526;-67
2021/06/10 05:24:43;;;;;;;4.90;3.70;;;22.00;99.90;;;;;;4376985;32;20066;-65
2021/06/10 05:27:10;;;;;;;8.70;4.43;;;22.10;99.90;;;;;;4401006;32;20081;-66
2021/06/10 05:29:37;;;;;;;7.37;4.15;;;22.10;99.90;;;;;;4367301;32;20554;-66
2021/06/10 05:32:05;;;;;;;6.60;3.78;;;22.10;99.90;;;;;;4371810;32;20074;-65
2021/06/10 05:34:32;;;;;;;5.85;3.85;;;22.60;99.90;;;;;;4384010;32;20161;-66
2021/06/10 05:36:58;;;;;;;6.50;3.72;;;22.30;99.90;;;;;;4379264;32;20105;-65
2021/06/10 05:39:24;;;;;;;6.12;3.62;;;22.50;99.90;;;;;;4402917;32;20548;-66
2021/06/10 05:41:52;;;;;;;4.40;3.50;;;22.70;99.90;;;;;;4372917;32;20114;-70
2021/06/10 05:44:18;;;;;;;4.05;3.17;;;23.00;99.90;;;;;;4377822;32;20147;-66
2021/06/10 05:46:45;;;;;;;4.12;3.55;;;23.10;99.90;;;;;;4388683;32;20125;-66
2021/06/10 05:49:11;;;;;;;6.22;3.50;;;22.60;99.90;;;;;;4372537;32;20054;-66
2021/06/10 05:51:37;;;;;;;4.53;3.33;;;23.00;99.90;;;;;;4388946;32;20496;-66
2021/06/10 05:54:03;;;;;;;6.85;3.80;;;23.40;99.90;;;;;;4380620;32;20063;-66
2021/06/10 05:56:29;;;;;;;4.43;3.85;;;23.00;99.90;;;;;;4390188;32;20141;-66
2021/06/10 05:58:56;;;;;;;6.53;4.03;;;23.40;99.90;;;;;;4376229;32;20118;-65
2021/06/10 06:01:23;;;;;;;6.32;4.43;;;23.20;99.90;;;;;;4375442;32;20068;-66
2021/06/10 06:03:49;;;;;;;4.90;3.97;;;22.70;99.90;;;;;;4379058;32;20056;-71
2021/06/10 06:06:19;;;;;;;7.18;4.25;;;22.50;99.90;;;;;;4382953;32;20078;-69
2021/06/10 06:08:46;;;;;;;5.07;4.45;;;22.50;99.90;;;;;;4386821;32;20121;-66
2021/06/10 06:11:12;;;;;;;6.85;4.40;;;22.50;99.90;;;;;;4367306;32;20594;-71
2021/06/10 06:13:49;;;;;;;7.53;3.97;;;22.40;99.90;;;;;;4366177;32;20101;-69
2021/06/10 06:16:19;;;;;;;7.30;4.20;;;22.50;99.90;;;;;;4380652;32;20299;-66
2021/06/10 06:18:47;;;;;;;4.75;4.07;;;22.40;99.90;;;;;;4382556;32;20146;-68
2021/06/10 06:21:13;;;;;;;7.45;4.50;;;22.20;99.90;;;;;;4362991;32;20058;-68
2021/06/10 06:23:43;;;;;;;4.70;3.90;;;22.20;99.90;;;;;;4385758;32;20631;-65
2021/06/10 06:26:10;;;;;;;6.40;3.90;;;22.20;99.90;;;;;;4394017;32;20086;-65
2021/06/10 06:28:39;;;;;;;4.93;3.80;;;22.30;99.90;;;;;;4385440;32;20084;-66
2021/06/10 06:31:07;;;;;;;6.05;5.00;;;22.30;99.90;;;;;;4353407;32;20338;-70
2021/06/10 06:33:33;;;;;;;8.15;5.87;;;21.90;99.90;;;;;;4368014;32;20098;-67
2021/06/10 06:36:00;;;;;;;7.22;6.12;;;21.60;99.90;;;;;;4388979;32;20070;-64
2021/06/10 06:38:27;;;;;;;7.00;5.75;;;21.30;99.90;;;;;;4379632;32;20429;-68
2021/06/10 06:40:53;;;;;;;7.30;6.10;;;21.00;99.90;;;;;;4367013;32;20185;-65
2021/06/10 06:43:19;;;;;;;6.10;5.28;;;21.00;99.90;;;;;;4366613;32;20085;-68
2021/06/10 06:45:46;;;;;;;9.20;6.20;;;20.90;99.90;;;;;;4370689;32;20066;-65
2021/06/10 06:48:14;;;;;;;8.63;6.68;;;20.80;99.90;;;;;;4372515;32;20133;-63
2021/06/10 06:50:41;;;;;;;8.82;7.32;;;21.10;99.90;;;;;;4366270;32;20149;-72
2021/06/10 06:53:07;;;;;;;10.00;7.87;;;21.10;99.90;;;;;;4375016;32;20570;-65
2021/06/10 06:55:34;;;;;;;8.57;7.20;;;21.00;99.90;;;;;;4376904;32;20074;-69
2021/06/10 06:58:00;;;;;;;10.32;7.32;;;21.20;99.90;;;;;;4365727;32;20593;-64
2021/06/10 07:00:26;;;;;;;10.15;6.45;;;20.90;99.90;;;;;;4394665;32;20069;-64
2021/06/10 07:02:53;;;;;;;9.70;7.28;;;21.40;99.90;;;;;;4376417;32;20085;-64
2021/06/10 07:05:20;;;;;;;10.10;6.95;;;21.30;99.90;;;;;;4366467;32;20109;-65
2021/06/10 07:07:46;;;;;;;9.95;7.35;;;21.30;99.90;;;;;;4361684;32;20090;-63
2021/06/10 07:10:13;;;;;;;7.90;6.40;;;21.20;99.90;;;;;;4386643;32;20235;-64
2021/06/10 07:12:39;;;;;;;8.00;6.65;;;21.30;99.90;;;;;;4362322;32;20094;-66
2021/06/10 07:15:06;;;;;;;7.80;6.45;;;21.40;99.90;;;;;;4370641;32;20176;-67
2021/06/10 07:17:32;;;;;;;8.25;5.78;;;21.20;99.90;;;;;;4372336;32;20120;-66
2021/06/10 07:20:00;;;;;;;6.68;5.85;;;21.20;99.90;;;;;;4373912;32;20086;-66
2021/06/10 07:22:31;;;;;;;6.82;4.78;;;21.20;99.90;;;;;;4374467;32;20122;-66
2021/06/10 07:24:57;;;;;;;7.47;5.00;;;21.40;99.90;;;;;;4357318;32;20094;-64
2021/06/10 07:27:23;;;;;;;7.70;5.50;;;21.40;99.90;;;;;;4384538;32;20078;-63
2021/06/10 07:29:52;;;;;;;7.37;5.15;;;21.50;99.90;;;;;;4381826;32;20499;-66
2021/06/10 07:32:19;;;;;;;8.25;5.60;;;21.50;99.90;;;;;;4366282;32;20089;-64
2021/06/10 07:34:45;;;;;;;6.72;5.28;;;21.60;99.90;;;;;;4355489;32;20078;-66
2021/06/10 07:37:11;;;;;;;6.82;6.00;;;21.50;99.90;;;;;;4355946;32;20162;-63
2021/06/10 07:39:38;;;;;;;6.37;5.45;;;21.60;99.90;;;;;;4376169;32;20133;-63
2021/06/10 07:42:05;;;;;;;8.07;5.53;;;21.60;99.90;;;;;;4364753;32;20505;-63
2021/06/10 07:44:31;;;;;;;6.72;5.28;;;21.60;99.90;;;;;;4363432;32;20145;-65
2021/06/10 07:46:58;;;;;;;6.85;5.68;;;21.80;99.90;;;;;;4382131;32;20088;-65
2021/06/10 07:49:24;;;;;;;7.95;5.22;;;22.10;99.90;;;;;;4366398;32;20066;-64
2021/06/10 07:51:50;;;;;;;6.30;4.97;;;21.80;99.90;;;;;;4371547;32;20524;-63
2021/06/10 07:54:17;;;;;;;8.60;6.87;;;22.00;99.90;;;;;;4352933;32;20065;-64
2021/06/10 07:56:43;;;;;;;11.80;8.38;;;21.90;99.90;;;;;;4370949;32;20101;-66
2021/06/10 07:59:10;;;;;;;11.20;8.88;;;21.90;99.90;;;;;;4377756;32;20085;-67
2021/06/10 08:01:40;;;;;;;10.40;9.27;;;21.80;99.90;;;;;;4378659;32;20074;-65
2021/06/10 08:04:06;;;;;;;13.52;10.48;;;21.80;99.90;;;;;;4376508;32;20155;-71
2021/06/10 08:06:55;;;;;;;11.30;8.57;;;21.80;99.90;;;;;;4379461;32;20071;-65
2021/06/10 08:09:21;;;;;;;12.85;8.13;;;22.20;99.90;;;;;;4377525;32;20086;-66
2021/06/10 08:11:48;;;;;;;10.80;8.35;;;22.50;99.90;;;;;;4375777;32;20445;-65
2021/06/10 08:14:14;;;;;;;12.02;8.65;;;22.80;99.90;;;;;;4367205;32;20102;-67
2021/06/10 08:16:40;;;;;;;11.88;8.35;;;23.20;99.90;;;;;;4379034;32;20063;-67
2021/06/10 08:19:06;;;;;;;11.85;7.78;;;23.00;99.90;;;;;;4384309;32;20206;-68
2021/06/10 08:21:33;;;;;;;10.68;6.43;;;23.20;99.90;;;;;;4379517;32;20078;-65
2021/06/10 08:23:59;;;;;;;10.23;6.55;;;23.30;99.90;;;;;;4367711;32;20473;-68
2021/06/10 08:26:25;;;;;;;10.32;6.93;;;24.00;99.90;;;;;;4372564;32;20157;-62
2021/06/10 08:28:52;;;;;;;8.93;5.93;;;24.40;99.90;;;;;;4359256;32;20067;-64
2021/06/10 08:31:18;;;;;;;7.93;5.60;;;23.60;99.90;;;;;;4364553;32;20070;-61
2021/06/10 08:33:45;;;;;;;7.15;5.57;;;23.40;99.90;;;;;;4380743;32;20093;-62
2021/06/10 08:36:11;;;;;;;7.30;5.60;;;23.60;99.90;;;;;;4351485;32;20101;-62
2021/06/10 08:38:38;;;;;;;7.50;6.43;;;24.20;99.90;;;;;;4383725;32;20174;-63
2021/06/10 08:41:05;;;;;;;9.15;5.35;;;23.90;99.90;;;;;;4375776;32;20071;-62
2021/06/10 08:43:31;;;;;;;7.28;5.57;;;24.20;99.90;;;;;;4367297;32;20080;-63
2021/06/10 08:46:06;;;;;;;7.07;5.50;;;24.20;99.90;;;;;;4381394;32;20064;-64
2021/06/10 08:48:45;;;;;;;8.10;4.43;;;24.40;99.90;;;;;;4368027;32;20081;-66
2021/06/10 08:51:13;;;;;;;6.72;4.28;;;24.70;99.90;;;;;;4371220;32;20205;-67
2021/06/10 08:53:39;;;;;;;5.47;4.65;;;25.30;99.90;;;;;;4389398;32;20145;-64
2021/06/10 08:56:06;;;;;;;5.93;3.97;;;25.20;99.90;;;;;;4358152;32;20497;-67
2021/06/10 08:58:33;;;;;;;8.95;5.40;;;25.10;99.90;;;;;;4358758;32;20108;-64
2021/06/10 09:01:00;;;;;;;9.85;6.12;;;24.90;97.90;;;;;;4375274;32;20090;-66
2021/06/10 09:03:29;;;;;;;13.32;8.27;;;24.80;94.70;;;;;;4380624;32;20073;-67
2021/06/10 09:06:17;;;;;;;8.55;5.30;;;25.00;94.70;;;;;;4371402;32;20505;-65
2021/06/10 09:08:48;;;;;;;7.70;4.75;;;25.00;85.30;;;;;;4355677;32;20230;-65
2021/06/10 09:11:21;;;;;;;5.35;4.45;;;25.40;87.00;;;;;;4365537;32;20124;-65
2021/06/10 09:13:53;;;;;;;5.30;4.43;;;24.80;83.50;;;;;;4359487;32;20086;-71
2021/06/10 09:16:34;;;;;;;5.35;4.43;;;25.00;86.30;;;;;;4369107;32;20246;-64
2021/06/10 09:19:11;;;;;;;7.10;5.10;;;25.60;73.70;;;;;;4380357;32;20100;-66
2021/06/10 09:21:55;;;;;;;8.20;4.78;;;25.30;70.90;;;;;;4370152;32;20101;-66
2021/06/10 09:24:33;;;;;;;6.60;4.97;;;25.50;75.40;;;;;;4360572;32;20097;-70
2021/06/10 09:27:04;;;;;;;7.05;5.80;;;25.20;70.00;;;;;;4378858;32;20074;-70
2021/06/10 09:29:46;;;;;;;7.37;6.37;;;25.40;77.90;;;;;;4377657;32;20161;-68
2021/06/10 09:32:18;;;;;;;9.00;7.07;;;26.00;78.20;;;;;;4376358;32;20090;-66
2021/06/10 09:34:55;;;;;;;8.80;7.15;;;26.10;71.10;;;;;;4376718;32;20073;-67
2021/06/10 09:37:46;;;;;;;10.68;7.32;;;26.30;75.40;;;;;;4386364;32;20193;-67
2021/06/10 09:40:17;;;;;;;11.12;6.93;;;26.00;75.00;;;;;;4378711;32;20188;-70
2021/06/10 09:42:46;;;;;;;7.97;5.95;;;26.00;75.30;;;;;;4382220;32;20121;-66
2021/06/10 09:45:18;;;;;;;7.82;5.78;;;26.50;71.50;;;;;;4369251;32;20074;-68
2021/06/10 09:48:05;;;;;;;8.48;5.87;;;26.70;68.60;;;;;;4359205;32;20146;-63
2021/06/10 09:50:44;;;;;;;6.55;4.80;;;26.40;71.00;;;;;;4378104;32;20070;-69
2021/06/10 09:53:22;;;;;;;9.45;7.22;;;26.70;63.00;;;;;;4380814;32;20107;-68
2021/06/10 09:56:04;;;;;;;8.88;6.00;;;25.50;72.90;;;;;;4381353;32;20081;-70
2021/06/10 09:58:34;;;;;;;9.93;5.85;;;25.50;71.60;;;;;;4369404;32;20078;-70
2021/06/10 10:01:11;;;;;;;8.55;5.55;;;25.60;72.80;;;;;;4360475;32;20089;-68
2021/06/10 10:03:43;;;;;;;8.52;5.45;;;26.60;69.00;;;;;;4379318;32;20082;-72
2021/06/10 10:06:24;;;;;;;5.97;4.18;;;25.80;71.70;;;;;;4390858;32;20154;-67
2021/06/10 10:08:59;;;;;;;3.85;3.17;;;25.50;70.00;;;;;;4356400;32;20146;-69
2021/06/10 10:11:26;;;;;;;5.25;3.87;;;26.00;61.40;;;;;;4378026;32;20190;-71
2021/06/10 10:13:55;;;;;;;4.72;3.65;;;26.30;59.90;;;;;;4377599;32;20070;-70
2021/06/10 10:16:29;;;;;;;5.60;3.87;;;26.00;64.10;;;;;;4375140;32;20107;-71
2021/06/10 10:19:03;;;;;;;4.22;3.55;;;26.40;63.90;;;;;;4358071;32;20069;-66
2021/06/10 10:21:32;;;;;;;6.50;3.60;;;26.80;61.90;;;;;;4383023;32;20073;-67
2021/06/10 10:24:09;;;;;;;5.25;4.15;;;27.10;59.90;;;;;;4360832;32;20562;-67
2021/06/10 10:26:36;;;;;;;5.75;4.00;;;26.10;60.30;;;;;;4345617;32;20118;-67
2021/06/10 10:29:05;;;;;;;5.30;4.18;;;26.00;63.30;;;;;;4378490;32;20100;-67
2021/06/10 10:31:33;;;;;;;5.50;3.72;;;26.10;64.40;;;;;;4358950;32;20077;-69
2021/06/10 10:34:00;;;;;;;7.18;4.12;;;26.00;66.90;;;;;;4370308;32;20260;-65
2021/06/10 10:36:36;;;;;;;5.80;4.32;;;26.40;63.30;;;;;;4372927;32;20120;-64
2021/06/10 10:39:07;;;;;;;7.18;4.90;;;26.70;58.60;;;;;;4378820;32;20092;-64
2021/06/10 10:41:53;;;;;;;6.37;3.90;;;27.00;56.30;;;;;;4399051;32;20140;-64
2021/06/10 10:44:26;;;;;;;6.07;4.50;;;26.60;53.60;;;;;;4358977;32;20074;-64
2021/06/10 10:47:06;;;;;;;4.95;3.72;;;26.20;56.90;;;;;;4363980;32;20364;-65
2021/06/10 10:50:00;;;;;;;4.95;4.30;;;26.60;52.70;;;;;;4388929;32;20499;-63
2021/06/10 10:52:29;;;;;;;6.28;4.70;;;26.20;54.80;;;;;;4380271;32;20548;-64
2021/06/10 10:54:56;;;;;;;4.87;4.00;;;26.70;57.50;;;;;;4379283;32;20073;-64
2021/06/10 10:57:33;;;;;;;7.65;4.15;;;26.20;53.80;;;;;;4376396;32;20505;-66
2021/06/10 11:00:00;;;;;;;6.60;4.43;;;26.50;55.60;;;;;;4381008;32;20106;-63
2021/06/10 11:02:27;;;;;;;6.20;4.25;;;27.50;55.40;;;;;;4365625;32;20102;-65
2021/06/10 11:04:57;;;;;;;6.45;4.43;;;27.60;56.10;;;;;;4390537;32;20103;-62
2021/06/10 11:07:36;;;;;;;7.12;4.40;;;27.70;53.40;;;;;;4378230;32;20089;-65
2021/06/10 11:10:07;;;;;;;5.75;3.95;;;27.40;52.60;;;;;;4378496;32;20528;-64
2021/06/10 11:12:43;;;;;;;5.15;4.00;;;26.70;54.60;;;;;;4383277;32;20601;-63
2021/06/10 11:15:23;;;;;;;4.75;3.45;;;26.90;52.20;;;;;;4378596;32;20085;-64
2021/06/10 11:17:58;;;;;;;4.37;3.60;;;26.50;50.70;;;;;;4383121;32;20063;-65
2021/06/10 11:20:36;;;;;;;5.25;3.70;;;27.10;53.00;;;;;;4380864;32;20094;-65
2021/06/10 11:23:13;;;;;;;5.05;3.58;;;27.20;53.70;;;;;;4386803;32;20082;-63
2021/06/10 11:25:43;;;;;;;5.10;3.45;;;26.50;62.90;;;;;;4386019;32;20143;-63
2021/06/10 11:28:37;;;;;;;4.47;3.55;;;26.70;60.60;;;;;;4369574;32;20077;-64
2021/06/10 11:31:20;;;;;;;4.25;3.35;;;26.40;60.30;;;;;;4368311;32;20116;-65
2021/06/10 11:33:48;;;;;;;4.82;3.80;;;26.40;59.30;;;;;;4365260;32;20457;-64
2021/06/10 11:36:15;;;;;;;7.72;3.42;;;26.70;58.50;;;;;;4383571;32;20085;-65
2021/06/10 11:38:44;;;;;;;5.22;3.70;;;26.80;57.00;;;;;;4366941;32;20101;-65
2021/06/10 11:41:12;;;;;;;5.78;3.60;;;26.70;60.60;;;;;;4387053;32;20587;-67
2021/06/10 11:43:41;;;;;;;7.30;3.20;;;26.50;58.70;;;;;;4374313;32;20452;-65
2021/06/10 11:46:13;;;;;;;4.60;3.83;;;26.20;60.80;;;;;;4371023;32;20149;-66
2021/06/10 11:48:54;;;;;;;4.87;3.67;;;27.00;60.30;;;;;;4376429;32;20066;-67
2021/06/10 11:51:26;;;;;;;4.18;3.35;;;27.00;58.60;;;;;;4388464;32;20093;-67
2021/06/10 11:54:14;;;;;;;4.70;3.60;;;27.20;58.20;;;;;;4369234;32;20070;-65
2021/06/10 11:56:42;;;;;;;6.07;3.85;;;26.80;60.00;;;;;;4379787;32;20115;-63
2021/06/10 11:59:19;;;;;;;5.55;3.78;;;26.40;60.60;;;;;;4385801;32;20141;-64
2021/06/10 12:02:10;;;;;;;8.07;3.80;;;25.80;65.20;;;;;;4371194;32;20158;-65
2021/06/10 12:04:39;;;;;;;5.22;4.45;;;26.20;62.30;;;;;;4380767;32;20084;-65
2021/06/10 12:07:16;;;;;;;7.40;4.30;;;26.10;61.40;;;;;;4356441;32;20182;-65
2021/06/10 12:09:56;;;;;;;4.75;3.90;;;26.00;61.10;;;;;;4373210;32;20077;-63
2021/06/10 12:12:39;;;;;;;5.05;3.50;;;25.80;63.30;;;;;;4364497;32;20120;-75
2021/06/10 12:15:29;;;;;;;5.65;3.72;;;25.90;65.10;;;;;;4380605;32;20062;-73
2021/06/10 12:18:06;;;;;;;7.37;4.00;;;25.80;60.80;;;;;;4356372;32;20117;-73
2021/06/10 12:20:34;;;;;;;6.45;3.87;;;26.20;63.00;;;;;;4374764;32;20092;-64
2021/06/10 12:23:03;;;;;;;5.22;4.00;;;26.30;59.60;;;;;;4351385;32;20082;-65
2021/06/10 12:25:32;;;;;;;5.70;4.78;;;26.40;59.20;;;;;;4365943;32;20085;-65
2021/06/10 12:27:59;;;;;;;6.80;4.25;;;26.30;56.90;;;;;;4374492;32;20098;-71
2021/06/10 12:30:38;;;;;;;5.62;4.07;;;25.90;57.00;;;;;;4352999;32;20073;-71
2021/06/10 12:33:21;;;;;;;5.80;3.87;;;25.90;57.20;;;;;;4356288;32;20065;-68
2021/06/10 12:35:49;;;;;;;6.43;4.20;;;26.10;55.20;;;;;;4378749;32;20066;-68
2021/06/10 12:38:18;;;;;;;5.95;4.35;;;26.00;53.20;;;;;;4357277;32;20504;-66
2021/06/10 12:40:48;;;;;;;6.18;3.97;;;25.70;54.30;;;;;;4371698;32;20547;-70
2021/06/10 12:43:23;;;;;;;6.72;3.62;;;26.00;53.20;;;;;;4355331;32;20097;-70
2021/06/10 12:45:49;;;;;;;6.55;3.53;;;26.10;52.50;;;;;;4362272;32;20093;-70
2021/06/10 12:48:30;;;;;;;5.32;3.30;;;26.90;49.80;;;;;;4371953;32;20082;-69
2021/06/10 12:51:26;;;;;;;6.25;3.37;;;26.30;59.70;;;;;;4372909;32;20073;-71
2021/06/10 12:54:15;;;;;;;3.25;2.80;;;26.40;61.00;;;;;;4371385;32;20114;-67
2021/06/10 12:56:53;;;;;;;3.22;2.80;;;26.30;64.40;;;;;;4381654;32;20073;-69
2021/06/10 12:59:27;;;;;;;8.35;3.40;;;26.50;61.20;;;;;;4364994;32;20065;-69
2021/06/10 13:02:13;;;;;;;5.95;2.85;;;26.20;65.90;;;;;;4371685;32;20070;-72